Time;durP1;ratioP1;P1;durP2;ratioP2;P2;SDS_P1;SDS_P2;PMS_P1;PMS_P2;Temp;Humidity;BMP_temperature;BMP_pressure;BME280_temperature;BME280_humidity;BME280_pressure;Samples;Min_cycle;Max_cycle;Signal;HPM_P1;HPM_P2
2022/08/02 00:01:24;;;;;;;3.13;2.30;;;21.80;79.30;;;20.35;63.61;99977.59;10407465;27;98360;-82
2022/08/02 00:06:27;;;;;;;3.47;2.20;;;21.70;80.10;;;20.25;63.89;99971.97;10417710;27;96554;-82
2022/08/02 00:11:30;;;;;;;3.38;2.08;;;21.60;80.70;;;20.14;64.26;99970.09;10416108;27;98315;-82
2022/08/02 00:16:33;;;;;;;2.38;2.10;;;21.50;81.00;;;19.98;64.79;99968.94;10426406;27;98596;-82
2022/08/02 00:21:40;;;;;;;2.55;1.85;;;21.40;81.60;;;19.86;65.09;99978.91;10416119;27;97399;-82
2022/08/02 00:26:44;;;;;;;2.55;2.15;;;21.30;82.10;;;19.77;65.42;99973.03;10428320;27;96583;-82
2022/08/02 00:31:47;;;;;;;2.05;1.85;;;21.20;82.80;;;19.74;66.16;99974.31;10432470;27;96759;-82
2022/08/02 00:36:50;;;;;;;3.65;2.25;;;21.10;83.30;;;19.69;67.30;99978.78;10454497;27;97224;-82
2022/08/02 00:41:53;;;;;;;2.35;2.08;;;21.10;84.00;;;19.59;66.97;99981.22;10400813;27;96563;-82
2022/08/02 00:46:56;;;;;;;2.67;2.20;;;21.10;84.50;;;19.52;67.65;99983.97;10425542;27;96776;-82
2022/08/02 00:51:59;;;;;;;2.65;2.33;;;20.90;84.90;;;19.42;67.76;99997.19;10406754;27;96581;-82
2022/08/02 00:57:03;;;;;;;3.83;2.50;;;20.80;85.60;;;19.28;67.88;99993.88;10438328;27;97004;-82
2022/08/02 01:02:07;;;;;;;2.58;2.38;;;20.70;86.50;;;19.19;68.68;99997.94;10435936;27;98182;-81
2022/08/02 01:07:13;;;;;;;2.90;2.63;;;20.60;87.30;;;19.08;69.15;99998.75;10448542;27;98482;-82
2022/08/02 01:12:16;;;;;;;4.18;2.72;;;20.50;87.90;;;19.05;69.21;100004.56;10433147;27;96691;-82
2022/08/02 01:17:49;;;;;;;2.88;2.40;;;20.40;88.60;;;19.07;69.54;100007.84;10409034;27;96596;-82
2022/08/02 01:23:17;;;;;;;3.28;2.97;;;20.50;89.10;;;19.10;69.45;100007.41;10401109;27;96619;-82
2022/08/02 01:28:49;;;;;;;2.97;2.30;;;20.50;89.50;;;19.09;69.66;100001.19;10415676;27;96489;-82
2022/08/02 01:34:18;;;;;;;4.07;2.72;;;20.40;90.00;;;19.03;69.59;99998.59;10432142;27;96634;-81
2022/08/02 01:39:26;;;;;;;3.72;2.47;;;20.40;90.30;;;18.92;70.20;99998.31;10444426;27;96699;-82
2022/08/02 01:44:38;;;;;;;4.25;2.78;;;20.30;90.70;;;18.84;70.30;99990.56;10412029;27;97463;-82
2022/08/02 01:49:46;;;;;;;3.47;2.80;;;20.20;91.10;;;18.78;70.69;100009.50;10401743;27;96641;-81
2022/08/02 01:55:05;;;;;;;3.95;2.60;;;20.20;91.50;;;18.68;71.14;100004.63;10433643;27;96587;-81
2022/08/02 02:00:13;;;;;;;2.53;2.33;;;20.10;91.90;;;18.57;71.25;100024.19;10419585;27;96599;-81
2022/08/02 02:05:21;;;;;;;3.45;2.78;;;20.00;92.30;;;18.49;71.98;100027.19;10452735;27;96571;-81
2022/08/02 02:10:29;;;;;;;3.92;2.65;;;19.90;92.80;;;18.42;71.98;100020.00;10414760;27;97488;-82
2022/08/02 02:15:33;;;;;;;3.65;2.88;;;19.80;93.30;;;18.33;72.66;100032.09;10424632;27;96965;-82
2022/08/02 02:20:37;;;;;;;3.58;3.10;;;19.80;93.90;;;18.26;73.35;100043.97;10418509;27;96676;-82
2022/08/02 02:25:42;;;;;;;3.50;2.80;;;19.60;94.60;;;18.22;73.38;100040.88;10447928;27;98488;-82
2022/08/02 02:30:54;;;;;;;4.43;3.20;;;19.60;95.10;;;18.17;73.60;100038.03;10433611;27;97978;-82
2022/08/02 02:35:58;;;;;;;3.72;2.85;;;19.50;95.60;;;18.17;74.04;100048.78;10443065;27;97056;-82
2022/08/02 02:41:05;;;;;;;3.00;2.70;;;19.60;95.90;;;18.17;74.00;100035.34;10469209;27;96640;-81
2022/08/02 02:46:10;;;;;;;3.30;3.00;;;19.60;96.20;;;18.19;73.59;100044.03;10460356;27;98313;-80
2022/08/02 02:51:13;;;;;;;3.13;2.83;;;19.60;96.40;;;18.12;74.15;100043.28;10471891;27;97139;-80
2022/08/02 02:56:17;;;;;;;3.17;2.88;;;19.50;96.70;;;18.11;74.46;100044.28;10440840;27;96839;-80
2022/08/02 03:01:28;;;;;;;4.45;3.00;;;19.50;97.30;;;18.11;74.62;100047.81;10469265;27;96777;-81
2022/08/02 03:06:51;;;;;;;5.77;2.87;;;19.50;97.60;;;18.14;74.82;100038.47;10451141;27;96957;-80
2022/08/02 03:11:55;;;;;;;3.95;3.30;;;19.50;97.70;;;18.15;74.27;100038.25;10445750;27;96576;-80
2022/08/02 03:16:58;;;;;;;3.25;2.95;;;19.50;97.90;;;18.15;74.30;100038.25;10448760;27;96953;-80
2022/08/02 03:22:01;;;;;;;3.28;2.97;;;19.60;98.10;;;18.16;74.36;100028.31;10499627;27;96542;-81
2022/08/02 03:27:04;;;;;;;5.82;4.30;;;19.50;98.20;;;18.17;74.43;100027.28;10459649;27;96587;-81
2022/08/02 03:32:07;;;;;;;7.90;4.32;;;19.60;98.50;;;18.15;74.45;100026.69;10477724;27;96826;-81
2022/08/02 03:37:11;;;;;;;5.63;3.90;;;19.60;98.60;;;18.08;75.08;100042.06;10455042;27;96571;-81
2022/08/02 03:42:14;;;;;;;5.03;3.42;;;19.50;98.90;;;18.05;75.17;100055.94;10415172;27;97211;-81
2022/08/02 03:47:18;;;;;;;3.33;3.03;;;19.40;99.20;;;18.08;75.86;100058.19;10423395;27;96685;-81
2022/08/02 03:52:24;;;;;;;3.67;2.95;;;19.50;99.60;;;18.15;75.36;100064.31;10431730;27;96618;-81
2022/08/02 03:57:27;;;;;;;3.83;2.83;;;19.50;99.70;;;18.19;75.64;100060.97;10451817;27;96911;-81
2022/08/02 04:02:30;;;;;;;4.70;3.38;;;19.50;99.90;;;18.24;75.60;100057.63;10421942;27;98377;-81
2022/08/02 04:07:33;;;;;;;5.57;3.20;;;19.60;99.90;;;18.33;76.11;100058.97;10431775;27;98621;-81
2022/08/02 04:12:56;;;;;;;5.07;3.10;;;19.70;99.90;;;18.43;75.98;100053.94;10423399;27;96608;-80
2022/08/02 04:18:02;;;;;;;3.38;2.90;;;19.80;99.90;;;18.50;76.06;100070.00;10423439;27;98582;-81
2022/08/02 04:23:13;;;;;;;4.22;3.22;;;19.90;99.90;;;18.58;76.16;100071.56;10420841;27;97334;-82
2022/08/02 04:28:18;;;;;;;6.25;2.88;;;19.90;99.90;;;18.66;76.60;100076.69;10438934;27;96594;-81
2022/08/02 04:33:30;;;;;;;3.75;3.15;;;20.00;99.90;;;18.74;76.42;100072.88;10421223;27;97338;-81
2022/08/02 04:38:33;;;;;;;4.57;3.58;;;20.10;99.90;;;18.84;76.01;100065.13;10435030;27;96633;-82
2022/08/02 04:43:36;;;;;;;5.65;2.97;;;20.10;99.90;;;18.96;75.74;100071.38;10400329;27;97252;-82
2022/08/02 04:48:39;;;;;;;4.93;3.60;;;20.20;99.90;;;19.11;76.00;100081.75;10426170;27;97298;-82
2022/08/02 04:53:42;;;;;;;4.63;3.17;;;20.40;99.90;;;19.30;76.16;100077.16;10418632;27;96606;-82
2022/08/02 04:58:45;;;;;;;5.15;3.33;;;20.60;99.90;;;19.47;75.86;100079.00;10421035;27;96707;-83
2022/08/02 05:03:48;;;;;;;6.13;3.40;;;20.70;99.90;;;19.67;75.28;100084.16;10452593;27;96741;-82
2022/08/02 05:08:50;;;;;;;3.08;2.78;;;20.90;99.90;;;19.83;74.31;100088.03;10421140;27;96580;-81
2022/08/02 05:13:54;;;;;;;3.58;2.90;;;21.10;99.90;;;19.94;73.28;100100.72;10442176;27;98392;-84
2022/08/02 05:19:01;;;;;;;4.57;3.67;;;21.20;99.90;;;20.09;72.82;100102.16;10415891;27;96761;-84
2022/08/02 05:24:05;;;;;;;4.53;2.92;;;21.40;99.90;;;20.26;72.95;100103.94;10408522;27;96674;-84
2022/08/02 05:29:08;;;;;;;5.63;3.00;;;21.50;99.90;;;20.44;72.80;100108.38;10414524;27;96642;-85
2022/08/02 05:34:11;;;;;;;2.92;2.63;;;21.70;99.90;;;20.63;72.36;100109.16;10424067;27;96525;-85
2022/08/02 05:39:14;;;;;;;5.95;2.70;;;21.90;99.90;;;20.88;70.87;100111.56;10439243;27;98348;-85
2022/08/02 05:44:21;;;;;;;4.80;2.25;;;22.20;99.90;;;21.44;67.80;100107.31;10432038;27;96598;-85
2022/08/02 05:49:24;;;;;;;2.70;2.15;;;22.40;98.60;;;21.73;63.44;100107.31;10446546;27;96615;-85
2022/08/02 05:54:49;;;;;;;2.60;2.20;;;22.60;96.80;;;21.85;62.49;100110.78;10447437;27;96648;-84
2022/08/02 06:00:09;;;;;;;2.00;1.77;;;22.90;95.70;;;21.98;61.87;100115.06;10416061;27;96589;-85
2022/08/02 06:05:20;;;;;;;2.80;2.05;;;23.10;94.90;;;22.09;61.12;100111.47;10422704;27;96379;-85
2022/08/02 06:10:25;;;;;;;4.68;2.28;;;23.30;94.00;;;22.27;60.93;100121.25;10422639;27;96836;-85
2022/08/02 06:15:29;;;;;;;3.05;2.20;;;23.50;93.40;;;22.48;60.95;100130.50;10424897;27;96722;-86
2022/08/02 06:20:37;;;;;;;3.55;2.20;;;23.70;93.10;;;22.65;59.72;100123.16;10428685;27;96493;-84
2022/08/02 06:25:41;;;;;;;2.97;1.75;;;23.90;92.30;;;22.81;59.00;100130.44;10462088;27;96578;-85
2022/08/02 06:30:53;;;;;;;5.00;2.00;;;24.10;91.80;;;22.98;59.22;100141.28;10446654;27;96575;-84
2022/08/02 06:36:20;;;;;;;3.92;2.00;;;24.30;91.40;;;23.17;57.94;100139.06;10462264;27;96565;-85
2022/08/02 06:41:26;;;;;;;2.83;1.92;;;24.50;90.80;;;23.33;56.91;100145.47;10460467;27;96716;-85
2022/08/02 06:46:29;;;;;;;2.17;1.75;;;24.60;89.40;;;23.46;55.45;100136.97;10461590;27;96561;-84
2022/08/02 06:51:52;;;;;;;2.33;1.90;;;24.80;87.70;;;23.58;54.81;100140.38;10446693;27;96523;-85
2022/08/02 06:56:55;;;;;;;2.80;1.60;;;24.90;86.10;;;23.71;52.97;100142.69;10434877;27;97127;-85
2022/08/02 07:01:58;;;;;;;2.42;1.80;;;25.00;83.90;;;23.84;52.24;100146.09;10470420;27;96601;-84
2022/08/02 07:07:01;;;;;;;2.78;1.70;;;25.20;81.50;;;23.99;51.53;100140.78;10460843;27;96517;-83
2022/08/02 07:12:05;;;;;;;2.40;1.50;;;25.30;80.00;;;24.14;49.99;100131.97;10455143;27;98285;-85
2022/08/02 07:17:08;;;;;;;3.78;2.15;;;25.50;78.00;;;24.21;49.55;100138.00;10419558;28;96520;-85
2022/08/02 07:22:11;;;;;;;4.43;1.73;;;25.60;76.10;;;24.33;49.79;100126.94;10419211;28;96484;-86
2022/08/02 07:27:15;;;;;;;3.30;1.75;;;25.70;75.70;;;24.47;49.27;100128.16;10418433;27;98199;-84
2022/08/02 07:32:22;;;;;;;2.65;1.77;;;25.80;75.10;;;24.65;49.55;100130.47;10416709;28;97294;-84
2022/08/02 07:37:29;;;;;;;2.10;1.70;;;26.00;74.70;;;24.77;47.63;100124.81;10419116;27;96823;-85
2022/08/02 07:42:55;;;;;;;2.97;1.60;;;26.20;72.40;;;24.95;47.35;100124.41;10397258;27;96730;-85
2022/08/02 07:48:07;;;;;;;3.30;1.75;;;26.20;71.30;;;25.14;46.88;100126.69;10443941;27;96618;-84
2022/08/02 07:53:10;;;;;;;2.72;1.70;;;26.40;71.30;;;25.33;46.57;100119.69;10439527;27;96687;-84
2022/08/02 07:58:12;;;;;;;4.15;1.67;;;26.60;70.00;;;25.50;45.55;100119.47;10425826;27;96608;-84
2022/08/02 08:03:15;;;;;;;4.65;1.60;;;26.80;68.10;;;25.60;44.79;100117.56;10460179;27;96458;-86
2022/08/02 08:08:18;;;;;;;2.22;1.60;;;26.90;68.00;;;25.69;43.96;100119.78;10426496;27;96465;-85
2022/08/02 08:13:21;;;;;;;2.33;1.33;;;27.00;66.20;;;25.84;44.02;100122.53;10413996;27;96488;-85
2022/08/02 08:18:24;;;;;;;3.60;1.30;;;27.10;66.00;;;26.03;43.49;100117.38;10445914;27;96638;-86
2022/08/02 08:23:27;;;;;;;4.80;1.60;;;27.40;65.50;;;26.29;42.38;100123.66;10423666;27;97023;-84
2022/08/02 08:28:30;;;;;;;1.85;1.30;;;27.50;63.30;;;26.47;41.60;100125.84;10437458;27;96672;-85
2022/08/02 08:33:33;;;;;;;2.47;1.45;;;27.70;62.70;;;26.58;40.81;100126.63;10440079;27;96560;-85
2022/08/02 08:38:36;;;;;;;3.28;1.40;;;27.80;61.40;;;26.83;41.12;100128.47;10422007;27;96719;-85
2022/08/02 08:43:39;;;;;;;5.00;1.50;;;28.00;61.50;;;27.10;40.95;100133.59;10420683;27;96673;-85
2022/08/02 08:48:48;;;;;;;1.90;1.50;;;28.20;61.30;;;27.16;40.40;100132.47;10418091;27;97079;-84
2022/08/02 08:53:55;;;;;;;1.95;1.42;;;28.40;60.50;;;27.24;39.90;100128.38;10426842;27;97052;-85
2022/08/02 08:58:59;;;;;;;1.83;1.40;;;28.50;59.90;;;27.31;39.81;100129.69;10427359;27;96921;-85
2022/08/02 09:04:02;;;;;;;1.75;1.23;;;28.60;59.10;;;27.43;39.56;100132.09;10413721;28;96540;-85
2022/08/02 09:09:05;;;;;;;2.38;1.60;;;28.70;58.80;;;27.52;39.41;100133.09;10400925;27;96598;-84
2022/08/02 09:14:08;;;;;;;1.98;1.20;;;28.80;58.60;;;27.61;39.07;100127.88;10412801;28;96608;-85
2022/08/02 09:19:25;;;;;;;2.80;1.15;;;28.90;57.90;;;27.67;38.82;100129.50;10412146;27;98129;-85
2022/08/02 09:24:39;;;;;;;2.45;1.42;;;28.90;57.90;;;27.86;38.84;100126.94;10409805;27;96534;-85
2022/08/02 09:29:48;;;;;;;2.00;1.45;;;29.10;58.00;;;28.08;38.33;100131.97;10399776;28;97280;-86
2022/08/02 09:35:11;;;;;;;3.67;1.60;;;29.30;57.40;;;28.22;37.50;100116.53;10441289;27;96608;-84
2022/08/02 09:40:14;;;;;;;1.85;1.40;;;29.50;56.30;;;28.45;38.18;100121.28;10433191;27;96669;-85
2022/08/02 09:45:17;;;;;;;2.67;1.30;;;29.70;56.80;;;28.62;37.02;100114.56;10458202;27;96543;-84
2022/08/02 09:50:19;;;;;;;2.15;1.42;;;29.90;55.40;;;28.73;36.82;100116.06;10464392;27;96915;-86
2022/08/02 09:55:24;;;;;;;6.13;1.73;;;30.00;55.40;;;28.79;36.41;100121.19;10445959;27;96670;-85
2022/08/02 10:00:27;;;;;;;2.92;1.50;;;30.10;54.80;;;28.90;36.46;100101.91;10431002;27;98207;-84
2022/08/02 10:06:00;;;;;;;2.97;1.40;;;30.20;54.50;;;28.96;36.17;100093.38;10464481;27;97318;-85
2022/08/02 10:11:05;;;;;;;3.42;1.10;;;30.20;54.30;;;29.13;36.36;100090.16;10463301;27;96857;-86
2022/08/02 10:16:08;;;;;;;1.70;1.23;;;30.30;54.90;;;29.16;35.39;100083.31;10461553;27;96650;-87
2022/08/02 10:21:28;;;;;;;2.97;1.63;;;30.50;53.70;;;29.32;34.76;100073.75;10461950;27;96610;-86
2022/08/02 10:26:32;;;;;;;3.15;1.40;;;30.60;53.30;;;29.51;35.67;100077.34;10430743;27;96565;-85
2022/08/02 10:31:54;;;;;;;1.83;1.17;;;30.80;53.40;;;29.83;35.08;100070.28;10461732;27;96493;-87
2022/08/02 10:37:02;;;;;;;1.80;1.20;;;31.10;53.10;;;29.90;34.21;100067.97;10425489;27;96732;-87
2022/08/02 10:42:05;;;;;;;2.83;1.10;;;31.30;52.30;;;29.91;34.06;100064.13;10431443;27;97285;-86
2022/08/02 10:47:15;;;;;;;1.67;1.00;;;31.30;52.00;;;29.99;34.46;100063.44;10427684;27;96572;-86
2022/08/02 10:52:29;;;;;;;4.72;1.40;;;31.40;52.10;;;29.87;33.46;100063.13;10461713;27;98452;-86
2022/08/02 10:57:34;;;;;;;2.45;0.90;;;31.40;50.90;;;29.88;34.42;100058.44;10441909;27;96734;-85
2022/08/02 11:02:41;;;;;;;1.65;1.00;;;31.30;51.40;;;30.07;34.30;100057.28;10402614;28;96455;-86
2022/08/02 11:07:49;;;;;;;1.40;1.15;;;31.50;51.60;;;30.29;34.39;100059.38;10386417;28;96518;-83
2022/08/02 11:13:16;;;;;;;2.03;1.07;;;31.70;51.80;;;30.51;33.79;100055.94;10422078;27;96693;-83
2022/08/02 11:18:21;;;;;;;2.03;1.30;;;31.80;51.20;;;30.34;34.73;100061.19;10422093;27;96567;-84
2022/08/02 11:23:39;;;;;;;1.30;1.20;;;31.70;52.00;;;30.08;35.17;100056.16;10443155;27;98202;-84
2022/08/02 11:28:50;;;;;;;1.73;1.23;;;31.40;52.40;;;29.96;35.55;100047.59;10460594;27;96481;-85
2022/08/02 11:33:53;;;;;;;2.45;1.20;;;31.20;52.70;;;30.00;35.28;100048.63;10460694;27;96670;-85
2022/08/02 11:39:14;;;;;;;1.73;1.20;;;31.30;52.60;;;29.87;35.22;100049.41;10442942;27;96547;-85
2022/08/02 11:44:18;;;;;;;1.08;0.90;;;31.20;52.20;;;29.91;35.56;100041.41;10440544;27;96464;-85
2022/08/02 11:49:25;;;;;;;1.48;1.05;;;31.10;52.70;;;30.05;34.17;100036.78;10440211;27;96873;-85
2022/08/02 11:54:33;;;;;;;2.25;1.05;;;31.30;51.70;;;30.08;35.57;100033.41;10433279;27;96679;-85
2022/08/02 11:59:38;;;;;;;;;;;31.40;52.10;;;30.44;35.33;100032.78;10442294;27;96543;-83
2022/08/02 12:04:41;;;;;;;2.90;0.90;;;31.70;52.60;;;30.82;34.30;100031.47;10441522;27;98386;-83
2022/08/02 12:09:45;;;;;;;1.20;0.95;;;32.00;51.80;;;31.17;33.00;100032.63;10442963;27;97367;-83
2022/08/02 12:14:48;;;;;;;1.10;0.90;;;32.40;50.50;;;31.49;33.09;100019.88;10450680;27;96727;-85
2022/08/02 12:19:51;;;;;;;0.95;0.85;;;32.70;50.60;;;31.88;31.96;100018.38;10440920;27;96562;-84
2022/08/02 12:24:57;;;;;;;1.02;0.93;;;33.20;49.80;;;31.93;32.75;100021.00;10422783;27;96831;-85
2022/08/02 12:30:08;;;;;;;1.48;1.10;;;33.40;49.80;;;31.54;32.46;100016.97;10432334;27;97086;-85
2022/08/02 12:35:20;;;;;;;1.10;1.00;;;32.90;49.60;;;30.96;33.39;100027.91;10441699;27;97066;-85
2022/08/02 12:40:32;;;;;;;1.13;0.93;;;32.20;50.40;;;30.68;34.05;100021.63;10410010;28;97229;-86
2022/08/02 12:45:55;;;;;;;1.15;1.00;;;31.80;51.10;;;30.77;33.16;100017.88;10421599;27;96614;-85
2022/08/02 12:50:58;;;;;;;1.13;0.82;;;32.00;49.70;;;30.68;33.31;100018.88;10398725;28;96701;-86
2022/08/02 12:56:01;;;;;;;0.80;0.80;;;32.00;50.30;;;30.96;33.27;100022.44;10422407;27;96645;-84
2022/08/02 13:01:05;;;;;;;1.58;0.90;;;32.20;50.20;;;30.99;33.35;100017.13;10422319;27;96766;-85
2022/08/02 13:06:08;;;;;;;1.17;0.70;;;32.30;50.00;;;31.19;31.86;100015.88;10398657;28;96673;-84
2022/08/02 13:11:31;;;;;;;1.98;0.70;;;32.50;49.00;;;31.69;32.16;100007.56;10415040;27;96581;-84
2022/08/02 13:16:34;;;;;;;0.85;0.75;;;32.90;49.20;;;32.18;30.64;99998.31;10424757;27;97329;-86
2022/08/02 13:21:37;;;;;;;4.30;0.90;;;33.40;47.80;;;32.37;29.53;100000.84;10418525;27;98403;-86
2022/08/02 13:27:00;;;;;;;0.77;0.70;;;33.50;46.60;;;32.60;28.76;100003.50;10443415;27;96761;-86
2022/08/02 13:32:10;;;;;;;1.10;0.60;;;33.70;46.30;;;33.00;29.12;100001.53;10405773;27;96895;-87
2022/08/02 13:37:13;;;;;;;0.95;0.50;;;34.00;46.30;;;33.33;28.03;99990.03;10431951;27;96565;-87
2022/08/02 13:42:17;;;;;;;0.63;0.52;;;34.30;45.90;;;33.34;28.04;99999.91;10413761;27;98238;-83
2022/08/02 13:47:20;;;;;;;1.05;0.40;;;34.50;45.20;;;33.50;27.31;99982.59;10420361;27;96849;-83
2022/08/02 13:52:38;;;;;;;;;;;34.60;45.00;;;33.67;27.51;99987.25;10436453;27;96420;-84
2022/08/02 13:57:41;;;;;;;1.15;0.55;;;34.70;44.10;;;33.50;26.38;99976.25;10428826;27;96546;-84
2022/08/02 14:02:55;;;;;;;1.65;0.60;;;34.60;44.30;;;33.41;27.54;99981.00;10438913;27;96670;-83
2022/08/02 14:07:58;;;;;;;0.65;0.52;;;34.50;44.50;;;33.20;26.93;99978.84;10424503;27;97130;-83
2022/08/02 14:13:03;;;;;;;0.77;0.43;;;34.40;44.10;;;33.28;27.22;99978.03;10406267;27;97969;-82
2022/08/02 14:18:06;;;;;;;1.85;0.40;;;34.40;43.90;;;33.52;27.96;99976.75;10401720;27;97044;-83
2022/08/02 14:23:09;;;;;;;3.55;0.55;;;34.50;44.70;;;33.72;26.45;99970.56;10402131;27;97150;-84
2022/08/02 14:28:12;;;;;;;0.65;0.55;;;34.70;43.90;;;33.80;26.57;99966.97;10436094;27;96651;-84
2022/08/02 14:33:15;;;;;;;0.65;0.47;;;34.80;44.00;;;33.86;25.99;99964.84;10415918;27;97107;-83
2022/08/02 14:38:18;;;;;;;2.30;0.55;;;35.00;43.40;;;33.77;26.22;99970.38;10424393;27;98459;-82
2022/08/02 14:48:43;;;;;;;2.75;0.60;;;34.80;43.00;;;33.74;26.20;99976.53;10459162;27;96799;-85
2022/08/02 14:53:46;;;;;;;1.38;0.65;;;34.70;42.90;;;33.77;26.13;99977.84;10404760;27;96692;-87
2022/08/02 14:59:05;;;;;;;0.70;0.40;;;34.80;43.00;;;33.73;24.97;99983.19;10436307;27;98488;-83
2022/08/02 15:04:08;;;;;;;0.57;0.50;;;34.70;42.40;;;33.64;25.36;99976.88;10442728;27;97286;-84
2022/08/02 15:09:12;;;;;;;0.93;0.70;;;34.60;42.40;;;33.59;25.58;99974.31;10416230;27;98034;-84
2022/08/02 15:14:19;;;;;;;0.85;0.63;;;34.60;42.40;;;33.58;26.08;99982.88;10429188;27;96576;-86
2022/08/02 15:19:30;;;;;;;1.67;0.40;;;34.50;42.60;;;33.66;25.56;99977.38;10397067;27;98297;-86
2022/08/02 15:24:53;;;;;;;0.50;0.50;;;34.60;43.30;;;33.76;24.94;99979.75;10395093;27;97311;-85
2022/08/02 15:29:58;;;;;;;1.10;0.73;;;34.70;42.00;;;33.57;24.55;99982.09;10413006;28;96542;-85
2022/08/02 15:35:03;;;;;;;0.50;0.50;;;34.60;41.70;;;33.37;24.62;99983.53;10386376;28;96741;-86
2022/08/02 15:40:06;;;;;;;0.65;0.40;;;34.30;41.40;;;33.28;24.73;99975.28;10461798;27;96569;-86
2022/08/02 15:45:10;;;;;;;1.00;0.68;;;34.30;41.80;;;33.27;25.27;99970.91;10428018;27;97174;-87
2022/08/02 15:50:17;;;;;;;13.15;1.90;;;34.10;41.70;;;33.18;24.01;99970.13;10468414;27;96651;-89
2022/08/02 15:55:21;;;;;;;0.70;0.60;;;34.10;41.10;;;33.19;24.86;99984.69;10471350;27;96767;-87
2022/08/02 16:00:24;;;;;;;0.55;0.55;;;34.10;41.30;;;33.17;24.38;99978.69;10464628;27;96477;-87
2022/08/02 16:05:27;;;;;;;0.47;0.47;;;34.10;41.10;;;33.16;24.00;99988.88;10457580;27;96691;-88
2022/08/02 16:10:30;;;;;;;0.57;0.57;;;34.10;40.80;;;32.91;24.57;99976.72;10462027;27;96596;-88
2022/08/02 16:15:33;;;;;;;0.73;0.60;;;33.80;41.20;;;32.78;25.03;99993.34;10479424;27;97437;-89
2022/08/02 16:20:36;;;;;;;1.17;0.60;;;33.70;41.40;;;32.59;25.01;99988.94;10463320;27;96656;-86
2022/08/02 16:25:39;;;;;;;1.02;0.60;;;33.40;41.40;;;32.49;24.87;99986.47;10471467;27;97909;-88
2022/08/02 16:30:43;;;;;;;1.60;0.63;;;33.40;41.50;;;32.35;25.21;99992.13;10463401;27;97989;-89
2022/08/02 16:36:06;;;;;;;4.32;0.70;;;33.20;41.50;;;32.22;24.90;99999.31;10472768;27;96489;-87
2022/08/02 16:41:09;;;;;;;1.08;0.80;;;33.10;41.10;;;32.04;25.44;99997.63;10428145;27;97432;-88
2022/08/02 16:46:14;;;;;;;0.68;0.57;;;33.00;41.40;;;31.93;26.03;100004.50;10391305;27;98415;-89
2022/08/02 16:51:18;;;;;;;1.10;0.80;;;32.90;41.90;;;31.75;26.46;100000.00;10435680;27;97182;-89
2022/08/02 16:56:21;;;;;;;1.92;0.77;;;32.80;42.30;;;31.52;27.33;100002.75;10416302;27;97073;-90
2022/08/02 17:01:24;;;;;;;0.98;0.88;;;32.60;42.90;;;31.16;27.51;100011.81;10406991;27;97987;-89
2022/08/02 17:06:47;;;;;;;1.13;0.80;;;32.30;43.10;;;30.65;28.42;100010.16;10408871;27;96964;-88
2022/08/02 17:11:53;;;;;;;1.00;0.60;;;31.80;43.90;;;30.19;29.32;100014.91;10408181;27;96626;-88
2022/08/02 17:16:56;;;;;;;1.30;0.65;;;31.30;44.60;;;29.89;30.19;100011.56;10437213;27;96631;-88
2022/08/02 17:21:59;;;;;;;0.93;0.60;;;30.90;45.20;;;29.59;30.49;100012.91;10420321;27;96658;-88
2022/08/02 17:27:03;;;;;;;1.05;0.60;;;30.60;45.60;;;29.34;30.93;100022.28;10432043;27;96788;-88
2022/08/02 17:32:07;;;;;;;4.75;0.68;;;30.40;46.10;;;29.12;31.05;100022.88;10422958;27;96898;-87
2022/08/02 17:37:13;;;;;;;0.50;0.50;;;30.10;46.10;;;28.88;31.30;100030.28;10456541;27;96432;-88
2022/08/02 17:42:18;;;;;;;2.15;0.43;;;29.90;46.30;;;28.69;31.29;100035.72;10414306;27;96747;-88
2022/08/02 17:47:23;;;;;;;4.30;0.80;;;29.70;46.60;;;28.50;32.07;100031.03;10403445;27;96622;-88
2022/08/02 17:52:32;;;;;;;4.90;0.68;;;29.50;46.90;;;28.27;32.35;100040.00;10405148;27;97233;-88
2022/08/02 17:57:55;;;;;;;3.05;1.00;;;29.40;47.00;;;28.05;32.83;100056.03;10411115;27;98016;-88
2022/08/02 18:03:03;;;;;;;1.80;0.70;;;29.20;47.50;;;27.80;33.65;100059.81;10415056;27;96743;-88
2022/08/02 18:08:08;;;;;;;1.80;0.63;;;29.00;47.80;;;27.53;34.12;100061.09;10415822;27;96757;-87
2022/08/02 18:13:11;;;;;;;1.80;0.50;;;28.70;48.10;;;27.28;34.23;100078.41;10400052;27;96649;-88
2022/08/02 18:18:17;;;;;;;3.35;0.60;;;28.50;48.50;;;27.02;34.80;100079.59;10402124;27;98258;-87
2022/08/02 18:23:31;;;;;;;2.75;0.43;;;28.20;48.90;;;26.73;35.34;100091.16;10426004;27;98036;-89
2022/08/02 18:28:39;;;;;;;2.03;0.40;;;27.90;49.40;;;26.44;35.88;100085.50;10435693;27;97126;-89
2022/08/02 18:33:43;;;;;;;3.08;0.45;;;27.60;49.90;;;26.19;35.79;100102.66;10443069;27;96610;-88
2022/08/02 18:39:03;;;;;;;1.85;0.73;;;27.40;50.00;;;25.93;36.42;100101.84;10418038;27;97334;-88
2022/08/02 18:44:10;;;;;;;1.75;0.40;;;27.00;50.20;;;25.72;35.89;100100.97;10403359;27;96711;-88
2022/08/02 18:49:18;;;;;;;1.15;0.40;;;26.80;50.20;;;25.55;36.40;100103.13;10420186;27;96659;-88
2022/08/02 18:54:21;;;;;;;1.05;0.50;;;26.60;50.40;;;25.44;36.89;100113.19;10404477;27;97638;-88
2022/08/02 18:59:32;;;;;;;0.60;0.45;;;26.50;50.40;;;25.34;36.66;100107.72;10404530;27;96689;-86
2022/08/02 19:04:42;;;;;;;2.50;0.50;;;26.50;50.50;;;25.21;36.96;100113.66;10422959;27;96771;-88
2022/08/02 19:09:48;;;;;;;3.13;0.50;;;26.40;50.60;;;25.09;37.17;100116.59;10419168;27;96643;-91
2022/08/02 19:14:51;;;;;;;1.40;0.63;;;26.20;50.80;;;24.98;37.44;100117.59;10434692;27;97616;-86
2022/08/02 19:19:54;;;;;;;0.57;0.52;;;26.10;51.00;;;24.90;37.74;100116.22;10412550;27;96688;-86
2022/08/02 19:24:57;;;;;;;0.80;0.43;;;26.00;51.30;;;24.88;37.96;100122.97;10414229;27;97253;-85
2022/08/02 19:30:07;;;;;;;0.60;0.50;;;26.00;51.70;;;24.82;38.29;100114.78;10430574;27;96733;-85
2022/08/02 19:35:12;;;;;;;2.92;0.50;;;25.90;51.80;;;24.85;38.50;100121.63;10423892;27;96633;-85
2022/08/02 19:40:32;;;;;;;0.50;0.50;;;25.90;52.10;;;24.89;38.85;100116.47;10432493;27;96693;-86
2022/08/02 19:45:35;;;;;;;0.60;0.60;;;26.00;52.30;;;24.93;39.24;100117.56;10454855;27;96638;-85
2022/08/02 19:50:54;;;;;;;2.35;0.63;;;26.00;52.60;;;25.02;39.49;100124.16;10434934;27;96997;-83
2022/08/02 19:56:03;;;;;;;0.50;0.50;;;26.10;52.70;;;25.08;39.73;100109.53;10448627;27;96591;-85
2022/08/02 20:01:08;;;;;;;0.80;0.75;;;26.10;53.00;;;25.10;39.75;100110.06;10419985;27;98222;-85
2022/08/02 20:06:19;;;;;;;0.90;0.75;;;26.20;53.10;;;25.04;39.83;100111.09;10428443;27;96687;-85
2022/08/02 20:11:31;;;;;;;1.40;0.80;;;26.10;53.40;;;24.95;40.32;100116.25;10452419;27;96654;-85
2022/08/02 20:16:37;;;;;;;2.33;0.80;;;26.10;53.60;;;24.88;40.89;100114.81;10429156;27;96690;-86
2022/08/02 20:21:43;;;;;;;1.00;0.90;;;26.10;54.10;;;24.78;41.16;100115.63;10417296;27;96865;-85
2022/08/02 20:27:06;;;;;;;1.45;1.00;;;26.00;54.50;;;24.63;42.41;100129.09;10428508;27;96628;-85
2022/08/02 20:32:10;;;;;;;2.55;0.95;;;25.90;55.30;;;24.43;43.39;100149.63;10418834;27;96971;-86
2022/08/02 20:37:13;;;;;;;1.45;1.10;;;25.80;55.70;;;24.23;43.47;100166.53;10436541;27;96543;-85
2022/08/02 20:42:36;;;;;;;1.42;1.00;;;25.60;56.00;;;24.07;43.56;100164.75;10402176;27;96693;-84
2022/08/02 20:47:41;;;;;;;2.20;1.00;;;25.40;56.30;;;23.90;43.99;100164.06;10423268;27;97203;-84
2022/08/02 20:52:48;;;;;;;2.22;1.17;;;25.20;56.80;;;23.68;44.70;100164.91;10418643;27;96788;-84
2022/08/02 20:57:50;;;;;;;1.20;1.10;;;24.90;57.30;;;23.53;45.28;100170.16;10445946;27;96781;-84
2022/08/02 21:03:04;;;;;;;1.98;0.80;;;24.80;57.80;;;23.33;45.64;100170.72;10400978;27;96902;-84
2022/08/02 21:08:09;;;;;;;4.07;1.00;;;24.60;58.20;;;23.17;46.20;100177.03;10442166;27;97130;-84
2022/08/02 21:13:16;;;;;;;1.25;0.80;;;24.40;58.80;;;22.98;46.84;100165.66;10392871;27;97086;-84